Time;durP1;ratioP1;P1;durP2;ratioP2;P2;SDS_P1;SDS_P2;PMS_P1;PMS_P2;Temp;Humidity;BMP_temperature;BMP_pressure;BME280_temperature;BME280_humidity;BME280_pressure;Samples;Min_cycle;Max_cycle;Signal;HPM_P1;HPM_P2
2021/12/08 00:00:43;;;;;;;0.50;0.50;;;;;;;8.56;46.90;94892.06;5025077;28;20233;-83
2021/12/08 00:03:12;;;;;;;0.63;0.63;;;;;;;8.48;46.72;94903.25;5003482;28;20302;-84
2021/12/08 00:05:41;;;;;;;0.60;0.60;;;;;;;8.50;46.45;94877.75;5022787;28;20214;-83
2021/12/08 00:08:11;;;;;;;1.90;0.60;;;;;;;8.48;46.85;94920.22;5000738;28;20199;-84
2021/12/08 00:13:01;;;;;;;0.70;0.70;;;;;;;8.45;46.54;94890.31;5017492;28;20222;-83
2021/12/08 00:13:41;;;;;;;1.00;0.77;;;;;;;8.46;46.25;94898.13;5014498;28;20205;-83
2021/12/08 00:16:11;;;;;;;0.50;0.50;;;;;;;8.48;45.46;94884.44;5000337;28;20206;-83
2021/12/08 00:18:44;;;;;;;0.50;0.50;;;;;;;8.40;48.52;94899.16;5006468;28;20222;-83
2021/12/08 00:21:12;;;;;;;0.80;0.80;;;;;;;8.33;46.84;94896.66;5018927;28;20203;-84
2021/12/08 00:23:39;;;;;;;0.60;0.60;;;;;;;8.44;45.85;94891.38;5021688;28;20491;-84
2021/12/08 00:26:06;;;;;;;0.93;0.50;;;;;;;8.41;44.73;94922.28;5005529;28;20294;-84
2021/12/08 00:28:33;;;;;;;0.60;0.60;;;;;;;8.43;44.67;94913.94;5008339;28;20187;-83
2021/12/08 00:31:04;;;;;;;0.53;0.53;;;;;;;8.38;45.63;94887.81;5010306;28;20210;-84
2021/12/08 00:33:32;;;;;;;0.60;0.60;;;;;;;8.23;45.90;94876.88;5005170;28;20242;-83
2021/12/08 00:36:01;;;;;;;0.77;0.67;;;;;;;8.32;44.92;94897.72;5001093;28;20215;-84
2021/12/08 00:38:28;;;;;;;0.60;0.60;;;;;;;8.29;45.40;94879.34;5003069;28;20286;-83
2021/12/08 00:40:55;;;;;;;0.60;0.60;;;;;;;8.35;44.86;94878.38;5022916;28;20207;-83
2021/12/08 00:43:24;;;;;;;0.63;0.63;;;;;;;8.38;44.50;94892.38;5009944;28;20215;-83
2021/12/08 00:45:52;;;;;;;2.00;0.70;;;;;;;8.32;44.99;94875.41;5025723;28;20301;-83
2021/12/08 00:48:21;;;;;;;0.70;0.70;;;;;;;8.28;44.80;94875.03;5023514;28;20225;-83
2021/12/08 00:50:49;;;;;;;0.60;0.60;;;;;;;8.30;44.67;94867.53;5007562;28;20219;-83
2021/12/08 00:53:17;;;;;;;0.50;0.50;;;;;;;8.44;43.77;94891.38;5003324;28;20242;-83
2021/12/08 00:55:44;;;;;;;1.13;0.80;;;;;;;8.40;44.56;94866.06;5006574;28;20242;-83
2021/12/08 00:58:11;;;;;;;0.70;0.50;;;;;;;8.42;44.05;94872.00;5021621;28;20258;-84
2021/12/08 01:00:42;;;;;;;0.60;0.60;;;;;;;8.40;43.81;94863.38;5003813;28;20203;-83
2021/12/08 01:03:10;;;;;;;1.07;0.70;;;;;;;8.45;43.54;94895.69;5005676;28;20207;-84
2021/12/08 01:05:42;;;;;;;0.60;0.60;;;;;;;8.38;43.72;94878.94;5009971;28;20195;-83
2021/12/08 01:08:10;;;;;;;0.60;0.60;;;;;;;8.40;43.37;94872.25;5008115;28;20202;-84
2021/12/08 01:10:39;;;;;;;0.50;0.50;;;;;;;8.48;43.05;94865.59;5023504;28;20210;-83
2021/12/08 01:13:09;;;;;;;0.60;0.60;;;;;;;8.42;43.49;94856.66;5010413;28;20203;-83
2021/12/08 01:15:38;;;;;;;0.60;0.60;;;;;;;8.35;42.66;94873.00;5005592;28;20226;-84
2021/12/08 01:18:05;;;;;;;1.03;0.93;;;;;;;8.49;42.24;94869.94;5020313;28;20233;-84
2021/12/08 01:20:32;;;;;;;0.60;0.60;;;;;;;8.47;42.53;94863.97;5016754;28;20279;-84
2021/12/08 01:23:01;;;;;;;0.53;0.50;;;;;;;8.47;41.76;94848.66;5019508;28;20198;-84
2021/12/08 01:25:28;;;;;;;1.17;0.80;;;;;;;8.50;41.69;94836.59;4994771;28;20207;-83
2021/12/08 01:27:55;;;;;;;0.60;0.60;;;;;;;8.49;41.60;94868.06;5006645;28;20207;-84
2021/12/08 01:30:22;;;;;;;0.60;0.60;;;;;;;8.48;41.82;94857.53;5005574;28;20230;-83
2021/12/08 01:32:53;;;;;;;0.70;0.70;;;;;;;8.41;42.41;94859.63;5020561;28;20279;-83
2021/12/08 01:35:21;;;;;;;0.60;0.60;;;;;;;8.47;42.62;94856.72;5012250;28;20288;-84
2021/12/08 01:37:48;;;;;;;0.60;0.60;;;;;;;8.33;43.29;94869.75;5000556;28;20222;-84
2021/12/08 01:40:18;;;;;;;0.70;0.70;;;;;;;8.27;42.88;94870.72;5025849;28;20199;-83
2021/12/08 01:42:49;;;;;;;0.50;0.50;;;;;;;8.35;42.17;94866.81;5006397;28;20202;-84
2021/12/08 01:48:04;;;;;;;0.60;0.60;;;;;;;8.43;41.76;94884.38;5012557;28;20199;-83
2021/12/08 01:50:31;;;;;;;0.60;0.60;;;;;;;8.50;41.73;94853.53;5002662;28;20211;-83
2021/12/08 01:52:59;;;;;;;1.00;0.90;;;;;;;8.45;41.49;94879.56;5009710;28;20210;-84
2021/12/08 01:55:27;;;;;;;0.60;0.60;;;;;;;8.48;41.16;94912.16;5008647;28;20202;-84
2021/12/08 01:57:54;;;;;;;0.73;0.73;;;;;;;8.44;41.68;94896.75;5010715;28;20308;-84
2021/12/08 02:00:26;;;;;;;0.60;0.60;;;;;;;8.46;41.67;94873.94;4999953;28;20203;-84
2021/12/08 02:02:59;;;;;;;0.60;0.60;;;;;;;8.47;41.66;94864.78;5021164;28;20214;-84
2021/12/08 02:05:27;;;;;;;2.67;0.70;;;;;;;8.50;41.87;94864.28;5029159;28;20270;-83
2021/12/08 02:07:55;;;;;;;0.70;0.70;;;;;;;8.46;41.24;94867.72;5004333;28;20286;-84
2021/12/08 02:10:24;;;;;;;0.60;0.60;;;;;;;8.47;40.95;94877.44;5008265;28;20226;-84
2021/12/08 02:12:52;;;;;;;0.60;0.60;;;;;;;8.47;41.42;94845.16;5011178;28;20199;-84
2021/12/08 02:15:21;;;;;;;0.57;0.57;;;;;;;8.39;41.09;94834.84;5007443;28;20207;-84
2021/12/08 02:17:52;;;;;;;0.50;0.50;;;;;;;8.38;41.77;94849.34;5023608;28;20261;-84
2021/12/08 02:20:21;;;;;;;0.60;0.60;;;;;;;8.45;41.90;94850.78;5018658;28;20213;-83
2021/12/08 02:22:51;;;;;;;0.73;0.60;;;;;;;8.50;41.24;94868.88;5009744;28;20218;-83
2021/12/08 02:25:25;;;;;;;0.63;0.60;;;;;;;8.42;41.21;94843.19;4999441;28;20212;-84
2021/12/08 02:27:54;;;;;;;1.37;0.80;;;;;;;8.47;40.79;94847.84;5009052;28;20214;-83
2021/12/08 02:30:28;;;;;;;0.60;0.60;;;;;;;8.48;41.08;94838.72;5021150;28;20209;-84
2021/12/08 02:49:23;;;;;;;0.80;0.80;;;;;;;8.51;41.51;94813.97;5003968;28;20204;-84
2021/12/08 02:51:52;;;;;;;0.80;0.80;;;;;;;8.53;41.10;94830.69;5009325;28;20211;-83
2021/12/08 02:54:21;;;;;;;0.70;0.70;;;;;;;8.56;41.71;94803.28;5006244;28;20211;-83
2021/12/08 02:56:48;;;;;;;0.83;0.73;;;;;;;8.64;40.65;94795.56;5009498;28;20233;-83
2021/12/08 02:59:15;;;;;;;2.10;0.70;;;;;;;8.54;41.69;94797.34;5000370;28;20223;-83
2021/12/08 03:01:43;;;;;;;0.87;0.70;;;;;;;8.53;41.37;94776.88;5007475;28;20263;-83
2021/12/08 03:04:10;;;;;;;0.93;0.60;;;;;;;8.53;42.06;94804.59;4990775;28;20230;-84
2021/12/08 03:06:38;;;;;;;0.50;0.50;;;;;;;8.52;41.99;94808.34;4988897;28;20205;-83
2021/12/08 03:09:06;;;;;;;0.57;0.57;;;;;;;8.54;41.84;94794.66;4996030;28;20228;-84
2021/12/08 03:11:36;;;;;;;0.60;0.60;;;;;;;8.55;42.21;94796.28;5005924;28;20196;-83
2021/12/08 03:14:07;;;;;;;0.80;0.80;;;;;;;8.53;42.70;94793.03;5002639;28;20200;-83
2021/12/08 03:16:37;;;;;;;0.70;0.70;;;;;;;8.45;42.64;94790.78;4984449;28;20208;-83
2021/12/08 03:19:04;;;;;;;1.27;0.70;;;;;;;8.51;42.76;94795.16;4990694;28;20223;-84
2021/12/08 03:21:32;;;;;;;1.23;0.80;;;;;;;8.49;42.96;94787.34;5000813;28;20215;-83
2021/12/08 03:24:18;;;;;;;0.60;0.60;;;;;;;8.56;42.53;94784.44;4989208;28;20227;-84
2021/12/08 03:26:52;;;;;;;0.87;0.87;;;;;;;8.63;41.95;94795.81;5006377;28;20279;-83
2021/12/08 03:29:29;;;;;;;0.60;0.60;;;;;;;8.70;41.86;94788.31;4988521;28;20218;-84
2021/12/08 03:32:05;;;;;;;0.70;0.70;;;;;;;8.55;42.32;94783.63;4986052;28;20487;-83
2021/12/08 03:34:34;;;;;;;0.70;0.70;;;;;;;8.65;41.92;94785.59;4985985;28;20203;-84
2021/12/08 03:37:02;;;;;;;0.80;0.80;;;;;;;8.68;42.04;94790.47;4999199;28;20212;-84
2021/12/08 03:39:30;;;;;;;0.70;0.70;;;;;;;8.60;43.00;94782.84;5004927;28;20219;-83
2021/12/08 03:41:58;;;;;;;0.80;0.57;;;;;;;8.56;42.82;94758.38;5005307;28;20294;-83
2021/12/08 03:44:25;;;;;;;1.47;0.90;;;;;;;8.62;42.73;94751.13;4989773;28;20235;-84
2021/12/08 03:46:59;;;;;;;0.70;0.70;;;;;;;8.63;43.01;94750.06;4999805;28;20279;-83
2021/12/08 03:49:26;;;;;;;0.70;0.70;;;;;;;8.62;43.44;94741.19;4980888;28;20207;-83
2021/12/08 03:51:56;;;;;;;0.70;0.70;;;;;;;8.61;43.17;94763.78;4997324;28;20208;-84
2021/12/08 03:54:24;;;;;;;1.17;0.90;;;;;;;8.63;43.13;94761.66;4988795;28;20230;-84
2021/12/08 03:56:51;;;;;;;0.60;0.60;;;;;;;8.56;43.52;94773.69;5008939;28;20306;-83
2021/12/08 03:59:19;;;;;;;0.70;0.70;;;;;;;8.57;43.01;94773.44;5002864;28;20220;-83
2021/12/08 04:01:46;;;;;;;1.00;0.80;;;;;;;8.56;43.08;94744.09;5025109;28;20218;-84
2021/12/08 04:04:14;;;;;;;0.60;0.60;;;;;;;8.52;43.60;94769.88;5021864;28;20211;-84
2021/12/08 04:06:46;;;;;;;0.90;0.90;;;;;;;8.46;43.92;94738.63;5006701;28;20294;-84
2021/12/08 04:09:19;;;;;;;0.70;0.70;;;;;;;8.38;44.58;94752.53;5008390;28;20306;-84
2021/12/08 04:11:47;;;;;;;0.73;0.73;;;;;;;8.36;44.36;94733.97;5009108;28;20230;-84
2021/12/08 04:14:17;;;;;;;0.70;0.70;;;;;;;8.31;44.63;94740.13;5004778;28;20203;-84
2021/12/08 04:16:50;;;;;;;0.63;0.63;;;;;;;8.26;45.34;94729.28;5003983;28;20282;-84
2021/12/08 04:19:18;;;;;;;0.67;0.67;;;;;;;8.32;44.80;94704.09;5024491;28;20222;-84
2021/12/08 04:21:46;;;;;;;2.87;0.63;;;;;;;8.27;45.23;94730.91;5021507;28;20297;-84
2021/12/08 04:24:14;;;;;;;0.70;0.70;;;;;;;8.28;44.68;94729.84;5008057;28;20202;-84
2021/12/08 04:26:45;;;;;;;0.70;0.70;;;;;;;8.38;44.72;94717.59;5006615;28;20282;-84
2021/12/08 04:29:14;;;;;;;0.70;0.70;;;;;;;8.27;45.46;94698.63;5019047;28;20222;-84
2021/12/08 04:31:43;;;;;;;0.80;0.80;;;;;;;8.30;45.81;94713.44;5020376;28;20305;-84
2021/12/08 04:34:18;;;;;;;0.70;0.70;;;;;;;8.33;46.29;94715.69;5006601;28;20520;-84
2021/12/08 04:36:51;;;;;;;1.70;0.70;;;;;;;8.34;46.58;94706.50;5003883;28;20221;-84
2021/12/08 04:39:26;;;;;;;0.80;0.80;;;;;;;8.35;46.89;94718.91;5006451;28;20295;-83
2021/12/08 04:42:00;;;;;;;0.70;0.70;;;;;;;8.34;46.70;94709.19;5008367;28;20198;-84
2021/12/08 04:44:34;;;;;;;0.70;0.70;;;;;;;8.32;47.16;94698.72;5004820;28;20293;-84
2021/12/08 04:47:31;;;;;;;0.80;0.80;;;;;;;8.28;47.58;94699.44;5008887;28;20213;-84
2021/12/08 04:50:24;;;;;;;0.80;0.80;;;;;;;8.26;48.28;94717.72;5021333;28;20200;-84
2021/12/08 04:53:00;;;;;;;0.80;0.80;;;;;;;8.20;48.71;94670.34;5005666;28;20207;-84
2021/12/08 05:01:17;;;;;;;0.70;0.70;;;;;;;8.18;48.67;94654.47;5006547;28;20247;-83
2021/12/08 05:06:45;;;;;;;0.60;0.60;;;;;;;8.23;46.68;94627.63;5023577;28;20281;-83
2021/12/08 05:09:21;;;;;;;0.80;0.80;;;;;;;8.19;47.88;94644.53;5010192;28;20214;-84
2021/12/08 05:11:52;;;;;;;2.00;0.80;;;;;;;8.17;47.88;94654.72;5019867;28;20202;-84
2021/12/08 05:14:25;;;;;;;0.73;0.73;;;;;;;8.19;47.40;94657.97;5018926;28;20207;-84
2021/12/08 05:16:56;;;;;;;0.60;0.60;;;;;;;8.22;47.00;94650.22;4999289;28;20326;-84
2021/12/08 05:19:26;;;;;;;0.90;0.73;;;;;;;8.28;46.42;94641.09;5006489;28;20242;-83
2021/12/08 05:21:58;;;;;;;1.50;1.07;;;;;;;8.31;46.58;94637.94;4995882;28;20213;-83
2021/12/08 05:24:32;;;;;;;0.80;0.80;;;;;;;8.28;46.31;94635.72;4999381;28;20214;-83
2021/12/08 05:27:03;;;;;;;0.80;0.80;;;;;;;8.27;46.21;94642.16;4999524;28;20203;-83
2021/12/08 05:29:36;;;;;;;0.70;0.70;;;;;;;8.27;46.24;94609.09;5018583;28;20211;-83
2021/12/08 05:32:04;;;;;;;1.93;0.70;;;;;;;8.30;46.57;94590.59;4996106;28;20294;-83
2021/12/08 05:34:31;;;;;;;0.60;0.60;;;;;;;8.28;45.88;94576.56;5004635;28;20257;-84
2021/12/08 05:37:01;;;;;;;1.07;0.70;;;;;;;8.38;45.66;94588.50;5007924;28;20326;-83
2021/12/08 05:39:31;;;;;;;0.60;0.60;;;;;;;8.39;45.65;94615.13;5001844;28;20227;-83
2021/12/08 05:42:01;;;;;;;1.70;0.80;;;;;;;8.40;45.74;94632.09;5018795;28;20267;-83
2021/12/08 05:44:29;;;;;;;0.80;0.80;;;;;;;8.26;45.19;94615.53;4999586;28;20261;-84
2021/12/08 05:47:00;;;;;;;0.93;0.80;;;;;;;8.37;45.71;94632.59;5014231;28;20294;-83
2021/12/08 05:49:27;;;;;;;0.70;0.70;;;;;;;8.29;45.59;94615.84;5004140;28;20214;-84
2021/12/08 05:51:56;;;;;;;0.70;0.70;;;;;;;8.35;45.45;94611.34;4998954;28;20203;-84
2021/12/08 05:54:30;;;;;;;0.70;0.70;;;;;;;8.34;45.72;94594.38;5005716;28;20218;-83
2021/12/08 05:57:00;;;;;;;0.73;0.63;;;;;;;8.37;45.13;94593.06;5005126;28;20297;-83
2021/12/08 05:59:28;;;;;;;2.17;0.73;;;;;;;8.47;44.26;94592.31;5000766;28;20223;-84
2021/12/08 06:01:58;;;;;;;0.83;0.70;;;;;;;8.42;45.15;94592.31;5002926;28;20214;-84
2021/12/08 06:04:27;;;;;;;1.70;0.77;;;;;;;8.43;45.31;94604.66;5006526;28;20217;-84
2021/12/08 06:06:55;;;;;;;0.70;0.70;;;;;;;8.34;45.57;94623.16;4993890;28;20206;-83
2021/12/08 06:09:27;;;;;;;0.87;0.77;;;;;;;8.42;45.18;94616.50;5007399;28;20211;-84
2021/12/08 06:11:54;;;;;;;0.70;0.70;;;;;;;8.40;45.31;94621.34;5022379;28;20206;-84
2021/12/08 06:14:24;;;;;;;1.10;0.87;;;;;;;8.39;45.87;94617.00;5003047;28;20206;-84
2021/12/08 06:16:54;;;;;;;0.70;0.70;;;;;;;8.39;44.88;94619.72;5006706;28;20207;-84
2021/12/08 06:19:21;;;;;;;0.63;0.63;;;;;;;8.37;45.22;94627.22;5015692;28;20228;-83
2021/12/08 06:21:49;;;;;;;4.13;0.90;;;;;;;8.33;45.82;94629.63;5007060;28;20227;-84
2021/12/08 06:24:19;;;;;;;0.87;0.80;;;;;;;8.33;45.85;94629.63;5002479;28;20200;-84
2021/12/08 06:26:48;;;;;;;0.70;0.70;;;;;;;8.29;45.28;94625.78;5009107;28;20208;-83
2021/12/08 06:29:18;;;;;;;1.13;1.00;;;;;;;8.22;47.51;94647.53;5007392;28;20203;-83
2021/12/08 06:31:49;;;;;;;1.70;1.33;;;;;;;7.71;64.96;94648.13;5010414;28;20207;-83
2021/12/08 06:34:16;;;;;;;2.80;2.00;;;;;;;7.16;74.08;94639.19;5002813;28;20199;-84
2021/12/08 06:36:46;;;;;;;3.17;2.30;;;;;;;6.64;79.96;94652.19;5010556;28;20199;-84
2021/12/08 06:39:17;;;;;;;2.20;2.00;;;;;;;6.27;80.53;94653.81;5005174;28;20230;-84
2021/12/08 06:41:52;;;;;;;2.63;2.20;;;;;;;6.18;82.57;94656.09;5007428;28;20219;-84
2021/12/08 06:44:23;;;;;;;3.50;2.50;;;;;;;5.92;88.54;94659.41;5014859;28;20238;-83
2021/12/08 06:46:50;;;;;;;3.10;2.33;;;;;;;5.73;91.52;94666.81;5011918;28;20215;-84
2021/12/08 06:49:21;;;;;;;2.50;2.10;;;;;;;5.60;93.15;94665.25;5008991;28;20203;-84
2021/12/08 06:51:54;;;;;;;4.30;2.00;;;;;;;5.60;93.60;94672.47;5012608;28;20218;-84
2021/12/08 06:54:25;;;;;;;2.93;2.17;;;;;;;5.45;95.82;94654.25;5010610;28;20237;-84
2021/12/08 06:56:59;;;;;;;2.47;2.27;;;;;;;5.37;97.62;94656.50;5006002;28;20278;-84
2021/12/08 06:59:31;;;;;;;3.90;2.50;;;;;;;5.22;100.00;94684.59;5005711;28;20239;-83
2021/12/08 07:02:05;;;;;;;2.93;2.50;;;;;;;5.14;100.00;94695.66;5012254;28;20294;-84
2021/12/08 07:04:52;;;;;;;3.13;2.50;;;;;;;5.13;100.00;94702.06;5009099;28;20197;-84
2021/12/08 07:07:22;;;;;;;4.73;2.50;;;;;;;5.08;100.00;94712.69;5009337;28;20211;-83
2021/12/08 07:09:52;;;;;;;3.33;2.30;;;;;;;5.07;100.00;94715.56;4999259;28;20261;-83
2021/12/08 07:12:25;;;;;;;3.93;2.43;;;;;;;5.09;100.00;94713.50;5012684;28;20253;-84
2021/12/08 07:14:56;;;;;;;2.97;2.17;;;;;;;5.02;100.00;94696.75;5008577;28;20211;-84
2021/12/08 07:17:27;;;;;;;2.60;2.40;;;;;;;5.06;100.00;94682.66;5015104;28;20246;-84
2021/12/08 07:20:13;;;;;;;4.63;2.67;;;;;;;5.02;100.00;94672.69;5008591;28;20223;-83
2021/12/08 07:22:43;;;;;;;2.47;2.20;;;;;;;4.99;100.00;94668.63;5001251;28;20218;-83
2021/12/08 07:25:12;;;;;;;4.73;3.40;;;;;;;4.95;100.00;94676.28;5015337;28;20199;-84
2021/12/08 07:27:41;;;;;;;4.07;3.10;;;;;;;4.91;100.00;94675.16;5004843;28;20215;-83
2021/12/08 07:30:13;;;;;;;3.10;2.80;;;;;;;4.96;100.00;94693.16;5023788;28;20206;-84
2021/12/08 07:32:42;;;;;;;3.50;3.03;;;;;;;4.91;100.00;94691.19;5005093;28;20231;-84
2021/12/08 07:35:15;;;;;;;4.50;3.63;;;;;;;4.91;100.00;94690.38;5008585;28;20304;-84
2021/12/08 07:37:42;;;;;;;5.23;3.60;;;;;;;4.78;100.00;94695.97;5019701;28;20215;-84
2021/12/08 07:40:14;;;;;;;6.30;3.80;;;;;;;4.74;100.00;94705.50;5024149;28;20223;-83
2021/12/08 07:42:47;;;;;;;9.37;6.17;;;;;;;4.74;100.00;94705.50;5013599;28;20266;-84
2021/12/08 07:45:19;;;;;;;4.00;3.60;;;;;;;4.78;100.00;94703.97;5001606;28;20227;-83
2021/12/08 07:47:49;;;;;;;6.40;3.53;;;;;;;4.80;100.00;94704.56;5002566;28;20231;-84
2021/12/08 07:50:21;;;;;;;4.30;3.23;;;;;;;4.76;100.00;94712.25;5018262;28;20207;-84
2021/12/08 07:52:51;;;;;;;5.13;3.60;;;;;;;4.77;100.00;94705.03;5008507;28;20274;-83
2021/12/08 07:55:22;;;;;;;4.07;3.67;;;;;;;4.69;100.00;94708.88;5007922;28;20217;-83
2021/12/08 07:57:51;;;;;;;5.10;3.77;;;;;;;4.72;100.00;94723.63;5004834;28;20223;-84
2021/12/08 08:00:25;;;;;;;5.63;3.47;;;;;;;4.72;100.00;94732.47;5025851;28;20229;-83
2021/12/08 08:02:54;;;;;;;5.37;4.07;;;;;;;4.68;100.00;94736.66;5006003;28;20302;-84
2021/12/08 08:05:27;;;;;;;3.87;3.43;;;;;;;4.71;100.00;94746.06;5008300;28;20207;-84
2021/12/08 08:07:56;;;;;;;6.07;4.33;;;;;;;4.69;100.00;94762.34;5003685;28;20206;-84
2021/12/08 08:10:26;;;;;;;5.17;4.07;;;;;;;4.68;100.00;94754.56;5004296;28;20191;-83
2021/12/08 08:13:00;;;;;;;6.33;4.13;;;;;;;4.67;100.00;94748.41;5010913;28;20191;-84
2021/12/08 08:15:30;;;;;;;6.67;5.83;;;;;;;4.64;100.00;94759.56;5006336;28;20299;-83
2021/12/08 08:18:04;;;;;;;8.93;7.03;;;;;;;4.62;100.00;94748.28;5024165;28;20203;-84
2021/12/08 08:20:35;;;;;;;8.87;7.17;;;;;;;4.72;100.00;94755.72;5023899;28;20636;-84
2021/12/08 08:23:03;;;;;;;9.67;7.43;;;;;;;4.73;100.00;94765.38;5004343;28;20211;-84
2021/12/08 08:25:34;;;;;;;10.53;6.60;;;;;;;4.72;100.00;94769.91;5005803;28;20203;-84
2021/12/08 08:28:04;;;;;;;7.20;5.67;;;;;;;4.75;100.00;94771.31;5008523;28;20260;-84
2021/12/08 08:30:35;;;;;;;8.43;6.50;;;;;;;4.69;100.00;94770.34;5025268;28;20266;-84
2021/12/08 08:33:03;;;;;;;6.13;5.20;;;;;;;4.66;100.00;94767.34;5018868;28;20250;-84
2021/12/08 08:35:33;;;;;;;6.30;4.47;;;;;;;4.65;100.00;94787.09;5008411;28;20203;-84
2021/12/08 08:38:05;;;;;;;4.87;4.30;;;;;;;4.66;100.00;94784.22;5007465;28;20198;-84
2021/12/08 08:40:36;;;;;;;5.80;3.80;;;;;;;4.72;100.00;94783.28;5018506;28;20273;-84
2021/12/08 08:43:05;;;;;;;5.73;3.90;;;;;;;4.72;100.00;94777.94;5002879;28;20298;-84
2021/12/08 08:45:36;;;;;;;5.03;4.30;;;;;;;4.68;100.00;94792.78;5025239;28;20286;-84
2021/12/08 08:48:08;;;;;;;5.17;4.10;;;;;;;4.68;100.00;94810.72;5016649;28;20230;-84
2021/12/08 08:50:39;;;;;;;5.57;4.57;;;;;;;4.56;100.00;94816.84;5005895;28;20202;-84
2021/12/08 08:53:09;;;;;;;9.70;6.00;;;;;;;4.55;100.00;94827.78;5011352;28;20267;-84
2021/12/08 08:55:42;;;;;;;4.53;4.00;;;;;;;4.55;100.00;94831.25;5002975;28;20207;-83
2021/12/08 08:58:11;;;;;;;4.93;3.77;;;;;;;4.57;100.00;94829.19;5003910;28;20242;-83
2021/12/08 09:00:43;;;;;;;4.50;3.57;;;;;;;4.59;100.00;94841.50;5002082;28;20242;-83
2021/12/08 09:03:16;;;;;;;2.40;1.60;;;;;;;4.62;100.00;94831.16;5006738;28;20218;-84
2021/12/08 09:05:46;;;;;;;1.17;1.07;;;;;;;4.68;100.00;94845.47;5020656;28;20306;-83
2021/12/08 09:08:16;;;;;;;1.30;0.83;;;;;;;4.67;100.00;94859.88;5004848;28;20298;-83
2021/12/08 09:10:49;;;;;;;1.20;1.00;;;;;;;4.50;100.00;94828.47;4997384;28;20203;-83
2021/12/08 09:13:22;;;;;;;1.10;1.00;;;;;;;4.37;100.00;94823.31;5005404;28;20213;-83
2021/12/08 09:15:53;;;;;;;0.93;0.80;;;;;;;4.22;100.00;94808.75;5013356;28;20202;-83
2021/12/08 09:18:28;;;;;;;0.70;0.70;;;;;;;4.21;100.00;94797.25;5007223;28;20294;-83
2021/12/08 09:21:09;;;;;;;1.43;1.10;;;;;;;4.07;100.00;94790.50;5006331;28;20285;-83
2021/12/08 09:23:40;;;;;;;0.80;0.80;;;;;;;3.92;100.00;94788.22;5007489;28;20288;-83
2021/12/08 09:26:12;;;;;;;1.43;1.00;;;;;;;3.83;100.00;94796.78;5003413;28;20215;-83
2021/12/08 09:28:43;;;;;;;2.43;0.93;;;;;;;3.77;100.00;94785.97;5009274;28;20215;-83
2021/12/08 09:31:16;;;;;;;0.80;0.80;;;;;;;3.82;100.00;94787.16;5009423;28;20214;-84
2021/12/08 09:33:50;;;;;;;2.20;1.20;;;;;;;3.88;100.00;94776.38;5009109;28;20207;-84
2021/12/08 09:36:29;;;;;;;3.30;1.33;;;;;;;3.92;100.00;94774.88;5020560;28;20206;-84
2021/12/08 09:39:00;;;;;;;1.70;1.33;;;;;;;3.96;100.00;94780.59;5007445;28;20275;-84
2021/12/08 09:41:32;;;;;;;2.40;1.20;;;;;;;3.89;100.00;94790.53;5008171;28;20230;-84
2021/12/08 09:44:04;;;;;;;2.20;1.50;;;;;;;3.90;100.00;94781.50;5003331;28;20199;-84
2021/12/08 09:46:35;;;;;;;2.60;1.30;;;;;;;3.86;100.00;94766.97;5021563;28;20297;-84
2021/12/08 09:49:04;;;;;;;1.67;1.17;;;;;;;3.85;100.00;94762.66;5007218;28;20222;-83
2021/12/08 09:51:35;;;;;;;1.13;1.03;;;;;;;3.83;100.00;94759.41;5005976;28;20203;-84
2021/12/08 09:54:02;;;;;;;1.50;1.10;;;;;;;3.86;100.00;94762.44;5002466;28;20516;-85
2021/12/08 09:56:30;;;;;;;1.23;1.10;;;;;;;3.93;100.00;94767.66;5005767;28;20198;-84
2021/12/08 09:58:58;;;;;;;1.83;1.17;;;;;;;3.98;100.00;94765.97;5000799;28;20214;-84
2021/12/08 10:01:27;;;;;;;1.53;1.10;;;;;;;4.00;100.00;94765.72;5007798;28;20230;-85
2021/12/08 10:03:56;;;;;;;1.20;1.10;;;;;;;3.97;100.00;94739.47;5007775;28;20195;-84
2021/12/08 10:06:25;;;;;;;2.80;1.30;;;;;;;3.98;100.00;94738.44;5003986;28;20282;-84
2021/12/08 10:08:57;;;;;;;3.03;1.87;;;;;;;3.97;100.00;94737.63;5018573;28;20199;-85
2021/12/08 10:11:25;;;;;;;4.37;3.80;;;;;;;3.95;100.00;94728.22;5030061;28;20298;-84
2021/12/08 10:13:53;;;;;;;7.37;4.00;;;;;;;3.92;100.00;94723.31;5010702;28;20207;-84
2021/12/08 10:16:21;;;;;;;6.03;4.00;;;;;;;3.86;100.00;94730.41;5015886;28;20203;-85
2021/12/08 10:18:51;;;;;;;6.07;4.17;;;;;;;3.77;100.00;94721.91;5011531;28;20203;-84
2021/12/08 10:21:19;;;;;;;5.40;3.70;;;;;;;3.73;100.00;94731.41;5002907;28;20233;-85
2021/12/08 10:23:49;;;;;;;4.50;3.57;;;;;;;3.78;100.00;94744.06;5017934;28;20237;-84
2021/12/08 10:26:19;;;;;;;7.17;4.47;;;;;;;3.80;100.00;94747.34;5004575;28;20207;-84
2021/12/08 10:28:48;;;;;;;7.63;3.63;;;;;;;3.85;100.00;94738.63;5004443;28;20206;-84
2021/12/08 10:31:17;;;;;;;5.10;3.90;;;;;;;3.87;100.00;94742.72;5010319;28;20407;-84
2021/12/08 10:33:58;;;;;;;7.33;4.33;;;;;;;3.88;100.00;94732.84;5026546;28;20268;-84
2021/12/08 10:36:45;;;;;;;6.47;4.10;;;;;;;3.85;100.00;94734.09;5008664;28;20215;-84
2021/12/08 10:39:15;;;;;;;7.03;4.80;;;;;;;3.82;100.00;94728.41;5007019;28;20199;-85
2021/12/08 10:41:49;;;;;;;8.93;4.23;;;;;;;3.83;100.00;94714.03;5004491;28;20222;-84
2021/12/08 10:44:21;;;;;;;5.53;3.70;;;;;;;3.80;100.00;94701.94;5015085;28;20223;-84
2021/12/08 10:46:54;;;;;;;4.13;3.10;;;;;;;3.78;100.00;94699.50;5004615;28;20206;-84
2021/12/08 10:54:22;;;;;;;3.57;2.53;;;;;;;3.67;100.00;94683.44;5006402;28;20230;-84
2021/12/08 10:54:55;;;;;;;5.07;2.80;;;;;;;3.38;100.00;94679.78;5016455;28;20306;-84
2021/12/08 10:57:27;;;;;;;4.50;2.67;;;;;;;3.27;100.00;94685.88;5007696;28;20284;-84
2021/12/08 11:00:01;;;;;;;4.10;3.10;;;;;;;3.14;100.00;94694.06;5009197;28;20210;-84
2021/12/08 11:02:41;;;;;;;3.50;2.90;;;;;;;3.12;100.00;94726.28;5007403;28;20206;-84
2021/12/08 11:05:32;;;;;;;3.57;2.80;;;;;;;3.08;100.00;94701.06;5020796;28;20231;-84
2021/12/08 11:08:03;;;;;;;3.20;2.83;;;;;;;3.07;100.00;94691.44;5008558;28;20238;-85
2021/12/08 11:10:30;;;;;;;4.17;3.27;;;;;;;3.01;100.00;94685.16;5007889;28;20262;-84
2021/12/08 11:13:00;;;;;;;6.17;3.30;;;;;;;3.00;100.00;94690.72;5007573;28;20211;-84
2021/12/08 11:15:29;;;;;;;4.60;3.07;;;;;;;2.96;100.00;94677.03;5006165;28;20298;-85
2021/12/08 11:18:16;;;;;;;3.63;3.00;;;;;;;2.88;100.00;94682.66;5008626;28;20211;-84
2021/12/08 11:20:49;;;;;;;3.57;2.77;;;;;;;2.75;100.00;94664.16;5018113;28;20234;-85
2021/12/08 11:23:28;;;;;;;5.67;2.83;;;;;;;2.74;100.00;94662.53;5002440;28;20210;-84
2021/12/08 11:25:58;;;;;;;5.27;2.87;;;;;;;2.64;100.00;94652.38;5010330;28;20226;-84
2021/12/08 11:28:33;;;;;;;3.10;2.80;;;;;;;2.76;100.00;94659.63;5004567;28;20211;-84
2021/12/08 11:31:07;;;;;;;3.00;2.70;;;;;;;2.73;100.00;94649.41;5001093;28;20207;-84
2021/12/08 11:33:37;;;;;;;3.63;3.00;;;;;;;2.69;100.00;94637.59;5003217;28;20215;-84
2021/12/08 11:36:17;;;;;;;4.43;3.10;;;;;;;2.73;100.00;94636.91;5009611;28;20213;-84
2021/12/08 11:38:46;;;;;;;3.10;2.80;;;;;;;2.74;100.00;94630.53;5005720;28;20230;-84
2021/12/08 11:41:34;;;;;;;4.60;3.23;;;;;;;2.72;100.00;94655.81;5004287;28;20226;-84
2021/12/08 11:44:03;;;;;;;3.47;2.63;;;;;;;2.66;100.00;94660.16;5007436;28;20212;-84
2021/12/08 11:46:35;;;;;;;3.57;2.73;;;;;;;2.74;100.00;94648.38;5007872;28;20290;-84
2021/12/08 11:49:06;;;;;;;4.57;2.93;;;;;;;2.80;100.00;94640.34;5000181;28;20204;-84
2021/12/08 11:51:50;;;;;;;2.80;2.50;;;;;;;2.78;100.00;94630.91;5010785;28;20529;-84
2021/12/08 11:54:36;;;;;;;3.47;2.90;;;;;;;2.71;100.00;94628.34;5009807;28;20226;-84
2021/12/08 11:57:13;;;;;;;3.43;2.53;;;;;;;2.71;100.00;94644.34;5023561;28;20231;-84
2021/12/08 11:59:54;;;;;;;3.33;3.00;;;;;;;2.74;100.00;94627.88;5011591;28;20225;-84
2021/12/08 12:02:22;;;;;;;3.93;3.20;;;;;;;2.74;100.00;94627.88;5004030;28;20219;-84
2021/12/08 12:04:50;;;;;;;5.93;3.17;;;;;;;2.72;100.00;94614.00;5002376;28;20210;-83
2021/12/08 12:07:19;;;;;;;4.40;3.07;;;;;;;2.77;100.00;94613.31;5001154;28;20271;-83
2021/12/08 12:09:47;;;;;;;3.80;3.00;;;;;;;2.81;100.00;94617.13;5006871;28;20203;-83
2021/12/08 12:12:14;;;;;;;2.60;2.40;;;;;;;2.78;100.00;94615.75;5008800;28;20206;-83
2021/12/08 12:14:41;;;;;;;3.50;2.73;;;;;;;2.80;100.00;94618.19;5005133;28;20214;-83
2021/12/08 12:17:10;;;;;;;3.20;2.40;;;;;;;2.89;100.00;94616.84;5018266;28;20214;-83
2021/12/08 12:19:46;;;;;;;3.73;2.80;;;;;;;2.88;100.00;94621.38;5005653;28;20210;-83
2021/12/08 12:22:36;;;;;;;2.73;2.20;;;;;;;2.84;100.00;94622.84;5002093;28;20234;-83
2021/12/08 12:25:17;;;;;;;2.70;2.03;;;;;;;2.77;100.00;94623.97;5010350;28;20204;-84
2021/12/08 12:27:54;;;;;;;2.00;1.80;;;;;;;2.78;100.00;94621.06;5018527;28;20239;-84